createdAt,value
2019-05-28T00:00:36.857Z,62.42
2019-05-28T00:01:29.149Z,62.13
2019-05-28T00:01:55.285Z,62.13
2019-05-28T00:02:47.580Z,62.23
2019-05-28T00:04:06.033Z,62.13
2019-05-28T00:04:58.336Z,62.23
2019-05-28T00:05:24.474Z,61.94
2019-05-28T00:06:16.765Z,62.33
2019-05-28T00:07:09.073Z,62.71
2019-05-28T00:07:35.227Z,63
2019-05-28T00:08:27.551Z,62.33
2019-05-28T00:09:46.076Z,63.29
2019-05-28T00:10:38.451Z,63.38
2019-05-28T00:11:04.593Z,63.38
2019-05-28T00:11:56.882Z,62.71
2019-05-28T00:13:15.357Z,62.13
2019-05-28T00:14:07.681Z,62.13
2019-05-28T00:15:26.100Z,62.52
2019-05-28T00:16:18.410Z,62.81
2019-05-28T00:16:44.550Z,62.23
2019-05-28T00:17:36.837Z,62.33
2019-05-28T00:18:29.123Z,62.33
2019-05-28T00:18:55.286Z,61.85
2019-05-28T00:19:47.571Z,62.23
2019-05-28T00:21:06.044Z,62.42
2019-05-28T00:21:58.382Z,62.3
2019-05-28T00:22:24.517Z,62.04
2019-05-28T00:23:16.808Z,62.23
2019-05-28T00:24:09.106Z,62.23
2019-05-28T00:24:35.246Z,62.2
2019-05-28T00:25:29.338Z,62.13
2019-05-28T00:25:54.679Z,61.94
2019-05-28T00:26:46.994Z,62.13
2019-05-28T00:28:05.430Z,62.23
2019-05-28T00:28:57.715Z,62.01
2019-05-28T00:30:20.089Z,62.1
2019-05-28T00:30:44.287Z,62.01
2019-05-28T00:31:36.586Z,62.3
2019-05-28T00:32:28.867Z,62.49
2019-05-28T00:32:55.057Z,62.3
2019-05-28T00:33:47.401Z,62.1
2019-05-28T00:35:05.864Z,62.49
2019-05-28T00:35:58.205Z,62.68
2019-05-28T00:36:24.376Z,62.77
2019-05-28T00:37:16.668Z,62.77
2019-05-28T00:37:44.243Z,62.59
2019-05-28T00:38:10.382Z,63.16
2019-05-28T00:38:36.530Z,63.16
2019-05-28T00:39:28.843Z,62.68
2019-05-28T00:39:55.017Z,63.26
2019-05-28T00:40:47.337Z,62.96
2019-05-28T00:42:05.769Z,63.16
2019-05-28T00:42:58.068Z,63.06
2019-05-28T00:44:16.499Z,63.16
2019-05-28T00:45:08.872Z,62.87
2019-05-28T00:45:35.009Z,63.06
2019-05-28T00:46:27.315Z,62.96
2019-05-28T00:47:45.789Z,63.16
2019-05-28T00:48:38.091Z,63.16
2019-05-28T00:49:04.262Z,63.35
2019-05-28T00:49:56.596Z,62.96
2019-05-28T00:50:48.886Z,63.45
2019-05-28T00:51:15.029Z,63.54
2019-05-28T00:52:07.335Z,63.45
2019-05-28T00:53:25.825Z,63.83
2019-05-28T00:54:18.147Z,63.83
2019-05-28T00:54:44.312Z,63.64
2019-05-28T00:55:36.680Z,63.54
2019-05-28T00:56:28.973Z,63.45
2019-05-28T00:56:55.216Z,63.64
2019-05-28T00:57:47.571Z,63.73
2019-05-28T00:59:06.043Z,63.83
2019-05-28T00:59:58.331Z,63.83
2019-05-28T01:00:36.366Z,63.54
2019-05-28T01:01:17.851Z,63.64
2019-05-28T01:02:36.274Z,63.73
2019-05-28T01:03:28.567Z,63.73
2019-05-28T01:03:54.738Z,63.83
2019-05-28T01:04:47.053Z,63.92
2019-05-28T01:05:39.395Z,63.83
2019-05-28T01:06:05.535Z,64.12
2019-05-28T01:06:57.863Z,64.12
2019-05-28T01:08:16.313Z,63.92
2019-05-28T01:09:08.663Z,63.73
2019-05-28T01:09:34.792Z,63.92
2019-05-28T01:10:27.082Z,63.64
2019-05-28T01:11:19.415Z,63.92
2019-05-28T01:11:45.583Z,63.64
2019-05-28T01:12:37.873Z,63.73
2019-05-28T01:13:56.313Z,63.64
2019-05-28T01:14:48.619Z,64.22
2019-05-28T01:15:14.755Z,64.5
2019-05-28T01:16:07.043Z,64.4
2019-05-28T01:16:59.361Z,63.83
2019-05-28T01:17:25.489Z,63.73
2019-05-28T01:18:17.781Z,64.12
2019-05-28T01:19:36.239Z,63.83
2019-05-28T01:20:28.561Z,64.02
2019-05-28T01:20:54.722Z,63.64
2019-05-28T01:21:47.015Z,63.45
2019-05-28T01:22:39.307Z,63.64
2019-05-28T01:23:05.471Z,63.92
2019-05-28T01:23:57.765Z,63.92
2019-05-28T01:25:16.804Z,63.64
2019-05-28T01:26:08.619Z,64.02
2019-05-28T01:26:34.756Z,63.73
2019-05-28T01:27:27.049Z,63.73
2019-05-28T01:28:19.337Z,63.16
2019-05-28T01:28:45.485Z,63.64
2019-05-28T01:29:37.801Z,63.73
2019-05-28T01:31:00.503Z,63.83
2019-05-28T01:31:24.358Z,63.73
2019-05-28T01:32:16.753Z,63.73
2019-05-28T01:33:09.103Z,63.83
2019-05-28T01:33:35.276Z,63.83
2019-05-28T01:34:27.601Z,63.83
2019-05-28T01:35:46.071Z,63.83
2019-05-28T01:36:38.385Z,64.02
2019-05-28T01:37:04.522Z,64.02
2019-05-28T01:37:56.819Z,64.02
2019-05-28T01:38:49.130Z,64.02
2019-05-28T01:39:15.273Z,63.92
2019-05-28T01:40:07.618Z,63.54
2019-05-28T01:41:26.052Z,63.73
2019-05-28T01:42:18.337Z,63.83
2019-05-28T01:42:44.480Z,63.64
2019-05-28T01:43:36.767Z,63.64
2019-05-28T01:44:29.083Z,63.64
2019-05-28T01:44:55.260Z,63.64
2019-05-28T01:45:47.574Z,64.02
2019-05-28T01:47:06.010Z,64.5
2019-05-28T01:47:58.308Z,64.5
2019-05-28T01:48:24.440Z,64.22
2019-05-28T01:49:16.775Z,64.5
2019-05-28T01:50:09.142Z,64.5
2019-05-28T01:50:35.315Z,64.5
2019-05-28T01:51:27.705Z,64.59
2019-05-28T01:52:46.199Z,64.5
2019-05-28T01:53:38.548Z,64.59
2019-05-28T01:54:04.685Z,64.12
2019-05-28T01:54:56.974Z,64.4
2019-05-28T01:55:49.277Z,64.31
2019-05-28T01:56:15.421Z,64.31
2019-05-28T01:57:07.743Z,65.17
2019-05-28T01:58:26.192Z,65.08
2019-05-28T01:59:18.501Z,64.31
2019-05-28T01:59:44.630Z,64.31
2019-05-28T02:00:36.941Z,64.4
2019-05-28T02:01:56.377Z,64.5
2019-05-28T02:02:48.771Z,64.31
2019-05-28T02:03:14.957Z,64.5
2019-05-28T02:04:07.247Z,64.22
2019-05-28T02:05:25.800Z,64.5
2019-05-28T02:06:18.088Z,64.4
2019-05-28T02:06:44.251Z,64.12
2019-05-28T02:07:36.559Z,64.4
2019-05-28T02:08:28.873Z,64.12
2019-05-28T02:08:55.013Z,64.5
2019-05-28T02:09:47.302Z,64.4
2019-05-28T02:11:05.727Z,64.59
2019-05-28T02:11:58.012Z,64.4
2019-05-28T02:13:16.495Z,63.83
2019-05-28T02:14:08.801Z,63.92
2019-05-28T02:14:34.953Z,63.64
2019-05-28T02:15:27.266Z,64.31
2019-05-28T02:16:45.736Z,64.4
2019-05-28T02:17:38.029Z,64.4
2019-05-28T02:18:56.494Z,63.73
2019-05-28T02:19:48.818Z,64.5
2019-05-28T02:20:14.948Z,64.59
2019-05-28T02:21:07.290Z,64.31
2019-05-28T02:22:25.766Z,64.02
2019-05-28T02:23:18.069Z,64.15
2019-05-28T02:24:36.512Z,63.64
2019-05-28T02:25:28.801Z,63.83
2019-05-28T02:25:54.936Z,63.73
2019-05-28T02:26:47.231Z,63.64
2019-05-28T02:28:05.676Z,63.45
2019-05-28T02:28:57.994Z,63.64
2019-05-28T02:30:16.414Z,63.73
2019-05-28T02:31:08.727Z,64.12
2019-05-28T02:31:36.861Z,63.64
2019-05-28T02:32:29.182Z,63.73
2019-05-28T02:32:55.322Z,63.73
2019-05-28T02:33:47.608Z,63.54
2019-05-28T02:35:06.044Z,63.45
2019-05-28T02:35:58.390Z,63.83
2019-05-28T02:36:24.526Z,63.73
2019-05-28T02:37:16.839Z,63.92
2019-05-28T02:38:09.133Z,63.73
2019-05-28T02:38:35.321Z,63.64
2019-05-28T02:39:27.700Z,63.64
2019-05-28T02:40:46.129Z,63.45
2019-05-28T02:41:38.454Z,63.45
2019-05-28T02:42:04.590Z,63.64
2019-05-28T02:42:56.954Z,63.92
2019-05-28T02:43:49.183Z,63.76
2019-05-28T02:44:15.362Z,63.67
2019-05-28T02:45:07.641Z,63.64
2019-05-28T02:46:26.076Z,63.73
2019-05-28T02:47:18.361Z,63.83
2019-05-28T02:47:44.505Z,63.54
2019-05-28T02:48:36.824Z,63.92
2019-05-28T02:49:29.109Z,63.64
2019-05-28T02:49:55.259Z,63.73
2019-05-28T02:50:47.573Z,63.73
2019-05-28T02:52:06.029Z,63.92
2019-05-28T02:52:58.366Z,63.64
2019-05-28T02:53:24.545Z,63.45
2019-05-28T02:54:16.852Z,63.92
2019-05-28T02:55:09.177Z,64.02
2019-05-28T02:55:35.314Z,64.02
2019-05-28T02:56:27.632Z,63.64
2019-05-28T02:57:46.101Z,63.92
2019-05-28T02:58:38.411Z,63.86
2019-05-28T02:59:04.551Z,63.96
2019-05-28T02:59:56.848Z,63.73
2019-05-28T03:00:49.168Z,64.15
2019-05-28T03:01:15.308Z,63.48
2019-05-28T03:02:08.586Z,63.86
2019-05-28T03:02:34.733Z,63.96
2019-05-28T03:03:27.019Z,63.48
2019-05-28T03:04:19.358Z,63.83
2019-05-28T03:04:45.488Z,64.02
2019-05-28T03:05:37.776Z,64.31
2019-05-28T03:06:56.212Z,64.59
2019-05-28T03:07:48.554Z,64.85
2019-05-28T03:08:14.692Z,65.71
2019-05-28T03:09:07.090Z,66
2019-05-28T03:09:59.375Z,65.52
2019-05-28T03:10:25.518Z,65.75
2019-05-28T03:11:46.033Z,66.03
2019-05-28T03:12:38.357Z,65.55
2019-05-28T03:13:04.536Z,66.22
2019-05-28T03:13:56.842Z,65.55
2019-05-28T03:14:49.137Z,65.94
2019-05-28T03:15:15.294Z,65.55
2019-05-28T03:16:07.587Z,65.94
2019-05-28T03:17:26.122Z,65.36
2019-05-28T03:18:18.411Z,65.46
2019-05-28T03:18:44.548Z,65.26
2019-05-28T03:19:36.875Z,65.26
2019-05-28T03:20:29.162Z,66.13
2019-05-28T03:20:55.329Z,65.36
2019-05-28T03:21:47.645Z,65.26
2019-05-28T03:23:06.066Z,65.08
2019-05-28T03:23:58.348Z,64.89
2019-05-28T03:24:24.506Z,64.79
2019-05-28T03:25:16.810Z,64.98
2019-05-28T03:26:09.141Z,64.98
2019-05-28T03:26:35.302Z,64.98
2019-05-28T03:27:27.596Z,64.98
2019-05-28T03:28:46.019Z,64.5
2019-05-28T03:29:38.314Z,65.01
2019-05-28T03:30:04.466Z,64.92
2019-05-28T03:30:56.889Z,64.63
2019-05-28T03:32:06.511Z,64.72
2019-05-28T03:32:17.355Z,64.63
2019-05-28T03:33:35.970Z,64.4
2019-05-28T03:34:28.287Z,64.82
2019-05-28T03:34:55.415Z,64.59
2019-05-28T03:35:47.737Z,64.5
2019-05-28T03:37:06.200Z,64.89
2019-05-28T03:37:58.524Z,64.98
2019-05-28T03:38:24.657Z,65.94
2019-05-28T03:39:16.949Z,66.19
2019-05-28T03:40:09.231Z,66.77
2019-05-28T03:40:35.379Z,66.86
2019-05-28T03:41:27.749Z,66.96
2019-05-28T03:42:46.242Z,67.44
2019-05-28T03:43:38.533Z,67.05
2019-05-28T03:44:04.709Z,66.96
2019-05-28T03:44:56.988Z,67.54
2019-05-28T03:45:49.343Z,68.21
2019-05-28T03:46:15.481Z,67.91
2019-05-28T03:47:07.757Z,68.21
2019-05-28T03:48:26.240Z,68.78
2019-05-28T03:49:18.530Z,68.3
2019-05-28T03:49:44.688Z,68.01
2019-05-28T03:50:36.985Z,68.11
2019-05-28T03:51:29.342Z,68.01
2019-05-28T03:51:55.482Z,67.91
2019-05-28T03:52:47.774Z,67.91
2019-05-28T03:54:06.217Z,67.54
2019-05-28T03:54:58.529Z,67.66
2019-05-28T03:55:24.697Z,67.76
2019-05-28T03:56:17.053Z,67.44
2019-05-28T03:57:09.332Z,68.01
2019-05-28T03:57:35.464Z,68.3
2019-05-28T03:58:27.788Z,68.3
2019-05-28T03:59:46.246Z,68.59
2019-05-28T04:01:05.708Z,68.78
2019-05-28T04:01:58.033Z,68.97
2019-05-28T04:02:25.187Z,68.78
2019-05-28T04:03:17.500Z,68.68
2019-05-28T04:04:35.967Z,68.78
2019-05-28T04:05:28.311Z,68.97
2019-05-28T04:05:54.447Z,69.01
2019-05-28T04:06:46.767Z,68.68
2019-05-28T04:07:39.062Z,68.59
2019-05-28T04:08:05.355Z,68.78
2019-05-28T04:08:57.568Z,68.59
2019-05-28T04:10:16.051Z,68.62
2019-05-28T04:11:08.394Z,68.11
2019-05-28T04:11:44.171Z,68.24
2019-05-28T04:12:28.805Z,68.4
2019-05-28T04:12:54.947Z,68.01
2019-05-28T04:13:47.264Z,68.33
2019-05-28T04:15:05.746Z,68.24
2019-05-28T04:15:58.075Z,68.4
2019-05-28T04:17:16.874Z,67.95
2019-05-28T04:17:44.268Z,68.14
2019-05-28T04:18:38.922Z,68.33
2019-05-28T04:19:06.677Z,68.33
2019-05-28T04:20:27.090Z,67.95
2019-05-28T04:21:46.422Z,68.24
2019-05-28T04:22:39.382Z,68.14
2019-05-28T04:23:05.859Z,68.14
2019-05-28T04:23:58.826Z,68.24
2019-05-28T04:24:25.171Z,67.95
2019-05-28T04:25:17.886Z,68.43
2019-05-28T04:25:45.266Z,69.01
2019-05-28T04:27:06.893Z,68.91
2019-05-28T04:28:25.819Z,68.72
2019-05-28T04:29:18.281Z,68.81
2019-05-28T04:29:44.424Z,69.01
2019-05-28T04:30:36.746Z,69.01
2019-05-28T04:31:29.059Z,68.81
2019-05-28T04:31:55.278Z,69.01
2019-05-28T04:32:48.626Z,69.01
2019-05-28T04:33:14.761Z,69.1
2019-05-28T04:34:08.033Z,69.01
2019-05-28T04:35:26.454Z,69.48
2019-05-28T04:36:18.789Z,70.35
2019-05-28T04:36:44.951Z,70.35
2019-05-28T04:37:37.237Z,70.92
2019-05-28T04:38:55.741Z,70.73
2019-05-28T04:39:48.038Z,70.44
2019-05-28T04:41:06.579Z,69.68
2019-05-28T04:41:58.870Z,70.15
2019-05-28T04:42:25.007Z,70.54
2019-05-28T04:43:17.293Z,70.5
2019-05-28T04:44:35.754Z,71.17
2019-05-28T04:45:28.040Z,71.08
2019-05-28T04:46:46.490Z,70.79
2019-05-28T04:48:05.930Z,70.41
2019-05-28T04:48:58.224Z,69.74
2019-05-28T04:49:24.390Z,69.93
2019-05-28T04:50:16.757Z,70.31
2019-05-28T04:51:09.047Z,71.11
2019-05-28T04:51:35.182Z,70.73
2019-05-28T04:52:30.459Z,70.5
2019-05-28T04:52:54.594Z,70.64
2019-05-28T04:53:46.915Z,70.35
2019-05-28T04:54:39.249Z,70.35
2019-05-28T04:55:05.391Z,70.35
2019-05-28T04:55:57.682Z,71.21
2019-05-28T04:57:16.140Z,72.13
2019-05-28T04:58:08.486Z,72.61
2019-05-28T04:58:34.630Z,72.61
2019-05-28T04:59:26.920Z,72.9
2019-05-28T05:00:19.217Z,73.57
2019-05-28T05:00:45.384Z,73.66
2019-05-28T05:01:37.723Z,74.33
2019-05-28T05:02:59.759Z,75.01
2019-05-28T05:04:15.928Z,75.2
2019-05-28T05:05:08.279Z,75.83
2019-05-28T05:05:34.461Z,76.6
2019-05-28T05:06:26.787Z,76.69
2019-05-28T05:07:19.068Z,77.4
2019-05-28T05:07:45.208Z,77.08
2019-05-28T05:08:37.551Z,77.08
2019-05-28T05:09:55.975Z,77.08
2019-05-28T05:10:49.257Z,77.46
2019-05-28T05:11:15.392Z,77.46
2019-05-28T05:12:07.783Z,77.55
2019-05-28T05:13:26.235Z,78.61
2019-05-28T05:14:18.580Z,78.86
2019-05-28T05:14:44.715Z,79.24
2019-05-28T05:15:37.074Z,79.33
2019-05-28T05:16:29.374Z,79.72
2019-05-28T05:16:55.509Z,80
2019-05-28T05:17:47.838Z,80
2019-05-28T05:19:06.280Z,81.05
2019-05-28T05:19:58.594Z,80.77
2019-05-28T05:20:24.766Z,81.34
2019-05-28T05:21:17.068Z,80.77
2019-05-28T05:22:09.381Z,80.96
2019-05-28T05:22:35.518Z,81.15
2019-05-28T05:23:27.838Z,82.3
2019-05-28T05:24:46.351Z,81.25
2019-05-28T05:25:38.715Z,80.96
2019-05-28T05:26:05.349Z,81.05
2019-05-28T05:26:57.665Z,81.34
2019-05-28T05:28:16.210Z,81.44
2019-05-28T05:29:08.554Z,82.4
2019-05-28T05:29:34.692Z,83.16
2019-05-28T05:30:27.040Z,83.26
2019-05-28T05:31:19.363Z,83.45
2019-05-28T05:31:45.532Z,83.16
2019-05-28T05:32:38.403Z,83.26
2019-05-28T05:33:19.000Z,82.59
2019-05-28T05:34:25.951Z,82.59
2019-05-28T05:35:18.256Z,82.97
2019-05-28T05:35:44.797Z,82.97
2019-05-28T05:36:37.032Z,82.97
2019-05-28T05:37:29.324Z,83.78
2019-05-28T05:37:55.489Z,83.97
2019-05-28T05:38:47.834Z,84.06
2019-05-28T05:40:06.311Z,83.49
2019-05-28T05:40:58.638Z,81.38
2019-05-28T05:41:24.801Z,81.2
2019-05-28T05:42:17.195Z,81
2019-05-28T05:43:36.250Z,81.96
2019-05-28T05:44:28.751Z,82.34
2019-05-28T05:44:54.898Z,83.01
2019-05-28T05:45:47.377Z,85.08
2019-05-28T05:47:05.857Z,92.92
2019-05-28T05:47:58.200Z,96.51
2019-05-28T05:48:24.348Z,97.66
2019-05-28T05:49:17.032Z,99.43
2019-05-28T05:50:09.388Z,99.81
2019-05-28T05:50:35.940Z,99.71
2019-05-28T05:51:28.219Z,99.99
2019-05-28T05:51:54.364Z,99.99
2019-05-28T05:52:46.692Z,99.99
2019-05-28T05:53:39.025Z,99.99
2019-05-28T05:54:05.160Z,99.99
2019-05-28T05:54:57.469Z,99.99
2019-05-28T05:56:15.902Z,99.99
2019-05-28T05:57:08.213Z,99.99
2019-05-28T05:57:34.354Z,99.99
2019-05-28T05:58:26.705Z,99.99
2019-05-28T05:59:19.008Z,99.99
2019-05-28T05:59:45.143Z,99.99
2019-05-28T06:00:37.437Z,98.09
2019-05-28T06:01:55.987Z,97.04
2019-05-28T06:02:48.298Z,96.94
2019-05-28T06:03:14.437Z,96.37
2019-05-28T06:04:08.731Z,96.18
2019-05-28T06:04:34.908Z,95.7
2019-05-28T06:05:27.195Z,95.32
2019-05-28T06:06:45.695Z,95.7
2019-05-28T06:07:38.087Z,95.03
2019-05-28T06:08:04.356Z,95.32
2019-05-28T06:08:59.805Z,96.66
2019-05-28T06:09:24.809Z,96.37
2019-05-28T06:10:17.218Z,96.18
2019-05-28T06:11:35.710Z,95.61
2019-05-28T06:12:28.070Z,95.22
2019-05-28T06:13:46.488Z,95.79
2019-05-28T06:14:38.808Z,95.98
2019-05-28T06:15:05.061Z,97.04
2019-05-28T06:15:57.368Z,96.84
2019-05-28T06:17:15.838Z,98.04
2019-05-28T06:18:08.167Z,96.61
2019-05-28T06:18:34.340Z,96.61
2019-05-28T06:19:26.755Z,95.75
2019-05-28T06:20:19.071Z,94.65
2019-05-28T06:20:45.287Z,94.65
2019-05-28T06:21:38.695Z,93.12
2019-05-28T06:22:04.832Z,93.21
2019-05-28T06:22:57.130Z,92.63
2019-05-28T06:23:49.418Z,90.63
2019-05-28T06:24:15.558Z,90.24
2019-05-28T06:25:07.964Z,91.01
2019-05-28T06:26:26.432Z,88.04
2019-05-28T06:27:19.513Z,87.85
2019-05-28T06:27:45.798Z,88.43
2019-05-28T06:28:38.083Z,87.85
2019-05-28T06:29:56.517Z,87.08
2019-05-28T06:30:49.319Z,87.61
2019-05-28T06:31:15.494Z,86.94
2019-05-28T06:32:07.875Z,86.94
2019-05-28T06:33:26.374Z,87.99
2019-05-28T06:34:45.854Z,85.12
2019-05-28T06:35:38.293Z,85.55
2019-05-28T06:36:04.433Z,86.22
2019-05-28T06:36:56.906Z,87.47
2019-05-28T06:39:16.010Z,88.09
2019-05-28T06:40:08.298Z,88.28
2019-05-28T06:40:34.531Z,88.56
2019-05-28T06:41:26.910Z,88.85
2019-05-28T06:42:19.564Z,86.27
2019-05-28T06:42:45.807Z,86.36
2019-05-28T06:43:38.176Z,84.55
2019-05-28T06:44:04.382Z,84.06
2019-05-28T06:44:57.078Z,84.35
2019-05-28T06:45:49.382Z,84.26
2019-05-28T06:46:15.519Z,84.74
2019-05-28T06:47:07.979Z,85.79
2019-05-28T06:48:27.680Z,84.92
2019-05-28T06:49:46.134Z,84.39
2019-05-28T06:50:38.550Z,83.72
2019-05-28T06:51:04.725Z,83.09
2019-05-28T06:51:57.250Z,82.32
2019-05-28T06:53:16.119Z,80.51
2019-05-28T06:54:11.525Z,79.51
2019-05-28T06:54:34.592Z,80.08
2019-05-28T06:55:26.893Z,81.62
2019-05-28T06:56:19.214Z,82.09
2019-05-28T06:56:45.415Z,83
2019-05-28T06:57:38.732Z,83.48
2019-05-28T06:58:04.867Z,83.58
2019-05-28T06:58:58.196Z,82.81
2019-05-28T06:59:24.345Z,82.04
2019-05-28T07:00:16.681Z,81.18
2019-05-28T07:01:09.249Z,82.37
2019-05-28T07:01:36.437Z,81.51
2019-05-28T07:02:28.758Z,79.97
2019-05-28T07:02:54.951Z,80.32
2019-05-28T07:03:47.266Z,79.64
2019-05-28T07:04:29.729Z,79.36
2019-05-28T07:05:07.771Z,80.22
2019-05-28T07:06:28.214Z,80.79
2019-05-28T07:06:54.367Z,81.46
2019-05-28T07:07:46.658Z,82.48
2019-05-28T07:08:38.970Z,83.48
2019-05-28T07:09:05.141Z,83.25
2019-05-28T07:09:57.427Z,83.15
2019-05-28T07:11:17.930Z,81.81
2019-05-28T07:12:37.393Z,82.43
2019-05-28T07:13:55.875Z,83.68
2019-05-28T07:14:48.404Z,85.02
2019-05-28T07:15:14.596Z,86.08
2019-05-28T07:16:06.921Z,85.98
2019-05-28T07:17:26.402Z,86.13
2019-05-28T07:18:45.886Z,84.98
2019-05-28T07:19:39.194Z,85.55
2019-05-28T07:20:05.337Z,86.41
2019-05-28T07:20:57.631Z,86.7
2019-05-28T07:22:16.198Z,86.13
2019-05-28T07:23:08.452Z,86.99
2019-05-28T07:23:34.595Z,87.27
2019-05-28T07:24:26.915Z,87.9
2019-05-28T07:25:19.292Z,88.95
2019-05-28T07:25:45.426Z,89.34
2019-05-28T07:26:37.771Z,90.48
2019-05-28T07:28:10.074Z,91.35
2019-05-28T07:29:15.671Z,92.4
2019-05-28T07:30:07.975Z,92.4
2019-05-28T07:31:26.490Z,92.69
2019-05-28T07:32:18.801Z,93.16
2019-05-28T07:32:44.985Z,93.07
2019-05-28T07:33:37.307Z,93.45
2019-05-28T07:34:57.722Z,96.8
2019-05-28T07:36:18.167Z,95.65
2019-05-28T07:36:44.303Z,96.32
2019-05-28T07:37:36.633Z,96.08
2019-05-28T07:38:28.890Z,95.79
2019-05-28T07:38:55.016Z,96.37
2019-05-28T07:39:47.347Z,97.28
2019-05-28T07:41:06.847Z,93.88
2019-05-28T07:41:59.199Z,93.35
2019-05-28T07:42:32.510Z,91.53
2019-05-28T07:43:18.784Z,88.79
2019-05-28T07:43:44.954Z,87.93
2019-05-28T07:44:37.252Z,85.05
2019-05-28T07:45:55.953Z,84.18
2019-05-28T07:46:48.243Z,81.15
2019-05-28T07:47:14.420Z,80.28
2019-05-28T07:48:06.708Z,78.98
2019-05-28T07:48:59.025Z,77.83
2019-05-28T07:49:25.193Z,76.96
2019-05-28T07:50:17.521Z,75.46
2019-05-28T07:51:35.995Z,74.79
2019-05-28T07:52:28.294Z,71.94
2019-05-28T07:52:54.521Z,71.23
2019-05-28T07:53:48.797Z,71.36
2019-05-28T07:54:14.966Z,72.03
2019-05-28T07:55:07.306Z,71.88
2019-05-28T07:56:25.845Z,69.09
2019-05-28T07:57:18.153Z,66.81
2019-05-28T07:57:44.329Z,65.37
2019-05-28T07:58:36.679Z,67.1
2019-05-28T07:59:28.967Z,66.33
2019-05-28T07:59:55.108Z,65.56
2019-05-28T08:00:47.456Z,65.46
2019-05-28T08:02:06.009Z,65.43
2019-05-28T08:02:58.346Z,66.2
2019-05-28T08:03:24.485Z,67.07
2019-05-28T08:04:16.830Z,67.42
2019-05-28T08:05:09.258Z,68.92
2019-05-28T08:05:35.381Z,69.44
2019-05-28T08:06:27.676Z,67.77
2019-05-28T08:06:55.797Z,67.58
2019-05-28T08:07:48.129Z,68.92
2019-05-28T08:08:14.300Z,69.21
2019-05-28T08:09:06.613Z,71.52
2019-05-28T08:09:58.901Z,71.1
2019-05-28T08:10:28.746Z,70.33
2019-05-28T08:11:18.362Z,69.24
2019-05-28T08:11:44.509Z,69.62
2019-05-28T08:12:36.816Z,70.68
2019-05-28T08:13:39.880Z,72.31
2019-05-28T08:13:57.268Z,71.93
2019-05-28T08:15:15.772Z,73.37
2019-05-28T08:16:17.916Z,74.13
2019-05-28T08:16:36.228Z,75
2019-05-28T08:17:55.721Z,74.73
2019-05-28T08:18:48.058Z,75.25
2019-05-28T08:20:06.584Z,75.79
2019-05-28T08:21:26.024Z,76.84
2019-05-28T08:22:18.376Z,75.7
2019-05-28T08:22:46.641Z,76.37
2019-05-28T08:23:39.103Z,77.13
2019-05-28T08:24:05.245Z,76.75
2019-05-28T08:24:57.533Z,76.56
2019-05-28T08:25:45.253Z,76.46
2019-05-28T08:26:46.761Z,76.81
2019-05-28T08:27:39.117Z,78.05
2019-05-28T08:28:19.067Z,79.26
2019-05-28T08:29:25.737Z,80.76
2019-05-28T08:30:18.098Z,82.29
2019-05-28T08:31:38.580Z,83.05
2019-05-28T08:32:04.724Z,82.19
2019-05-28T08:32:57.037Z,81.46
2019-05-28T08:33:49.366Z,80.79
2019-05-28T08:34:19.258Z,80.7
2019-05-28T08:35:35.989Z,81.37
2019-05-28T08:36:28.289Z,80.76
2019-05-28T08:37:05.583Z,80.47
2019-05-28T08:37:48.719Z,81.56
2019-05-28T08:38:14.863Z,81.18
2019-05-28T08:39:07.268Z,81.56
2019-05-28T08:40:25.858Z,85.16
2019-05-28T08:41:18.191Z,86.98
2019-05-28T08:41:44.355Z,88.42
2019-05-28T08:42:36.729Z,87.84
2019-05-28T08:43:29.170Z,87.23
2019-05-28T08:43:55.307Z,89.33
2019-05-28T08:44:47.596Z,92.58
2019-05-28T08:46:06.165Z,93.74
2019-05-28T08:46:58.478Z,97.42
2019-05-28T08:47:24.698Z,98.52
2019-05-28T08:48:17.026Z,99.99
2019-05-28T08:49:09.406Z,99.99
2019-05-28T08:49:35.603Z,99.99
2019-05-28T08:50:34.182Z,99.99
2019-05-28T08:50:55.103Z,99.99
2019-05-28T08:51:47.421Z,99.99
2019-05-28T08:53:05.899Z,99.99
2019-05-28T08:53:58.240Z,99.99
2019-05-28T08:54:24.377Z,99.99
2019-05-28T08:55:16.684Z,99.99
2019-05-28T08:56:09.354Z,99.99
2019-05-28T08:56:35.492Z,99.99
2019-05-28T08:57:27.853Z,99.99
2019-05-28T08:57:55.026Z,99.99
2019-05-28T08:58:47.397Z,99.99
2019-05-28T09:00:05.876Z,99.99
2019-05-28T09:00:58.203Z,99.99
2019-05-28T09:01:24.366Z,99.99
2019-05-28T09:02:27.622Z,99.99
2019-05-28T09:03:09.092Z,99.99
2019-05-28T09:03:35.224Z,99.99
2019-05-28T09:04:27.534Z,99.99
2019-05-28T09:05:47.161Z,99.99
2019-05-28T09:07:06.713Z,99.99
2019-05-28T09:07:59.025Z,99.99
2019-05-28T09:08:38.206Z,99.99
2019-05-28T09:09:18.529Z,99.99
2019-05-28T09:09:44.664Z,99.99
2019-05-28T09:10:36.960Z,99.99
2019-05-28T09:11:56.097Z,99.99
2019-05-28T09:12:49.415Z,99.99
2019-05-28T09:13:15.566Z,99.99
2019-05-28T09:14:07.856Z,99.99
2019-05-28T09:15:28.211Z,99.99
2019-05-28T09:15:54.516Z,99.99
2019-05-28T09:16:46.852Z,99.99
2019-05-28T09:17:39.171Z,99.99
2019-05-28T09:18:05.553Z,99.99
2019-05-28T09:18:57.750Z,99.99
2019-05-28T09:20:16.277Z,99.99
2019-05-28T09:21:08.646Z,99.82
2019-05-28T09:21:34.865Z,99.72
2019-05-28T09:22:28.118Z,99.99
2019-05-28T09:22:54.309Z,99.91
2019-05-28T09:23:46.707Z,98.38
2019-05-28T09:24:39.145Z,97.14
2019-05-28T09:25:05.403Z,97.23
2019-05-28T09:25:57.678Z,98.57
2019-05-28T09:27:16.672Z,97.33
2019-05-28T09:28:08.953Z,94.74
2019-05-28T09:28:35.171Z,94.26
2019-05-28T09:29:27.636Z,94.35
2019-05-28T09:30:46.111Z,97.04
2019-05-28T09:31:38.450Z,98.1
2019-05-28T09:32:04.585Z,98.96
2019-05-28T09:32:57.079Z,97.8
2019-05-28T09:34:15.641Z,96.56
2019-05-28T09:35:08.964Z,97.14
2019-05-28T09:35:44.390Z,96.56
2019-05-28T09:36:55.985Z,95.98
2019-05-28T09:37:48.468Z,94.64
2019-05-28T09:38:14.773Z,94.64
2019-05-28T09:39:07.118Z,94.07
2019-05-28T09:40:25.914Z,94.84
2019-05-28T09:41:47.418Z,91
2019-05-28T09:43:05.875Z,92.44
2019-05-28T09:43:58.198Z,92.35
2019-05-28T09:44:24.370Z,91.39
2019-05-28T09:45:22.740Z,90.96
2019-05-28T09:45:44.834Z,90.96
2019-05-28T09:46:37.121Z,91
2019-05-28T09:47:55.645Z,89.52
2019-05-28T09:48:48.036Z,88.28
2019-05-28T09:50:21.170Z,90.29
2019-05-28T09:50:35.771Z,91.92
2019-05-28T09:51:28.089Z,93.83
2019-05-28T09:52:54.054Z,93.35
2019-05-28T09:53:14.641Z,93.74
2019-05-28T09:54:06.967Z,93.78
2019-05-28T09:54:59.262Z,94.74
2019-05-28T09:55:25.429Z,95.22
2019-05-28T09:56:17.723Z,95.03
2019-05-28T09:56:44.877Z,95.03
2019-05-28T09:57:46.656Z,95.12
2019-05-28T09:58:04.366Z,96.27
2019-05-28T09:58:56.708Z,97.23
2019-05-28T10:00:16.213Z,97.66
2019-05-28T10:01:37.188Z,95.84
2019-05-28T10:02:29.108Z,94.31
2019-05-28T10:02:55.246Z,93.35
2019-05-28T10:03:47.597Z,92.97
2019-05-28T10:05:08.142Z,90.67
2019-05-28T10:05:34.326Z,89.71
2019-05-28T10:06:55.815Z,89.32
2019-05-28T10:07:48.250Z,89.71
2019-05-28T10:08:14.458Z,89.32
2019-05-28T10:09:06.813Z,87.84
2019-05-28T10:09:59.164Z,88.02
2019-05-28T10:10:25.315Z,88.31
2019-05-28T10:11:17.643Z,87.41
2019-05-28T10:12:36.167Z,88.41
2019-05-28T10:13:38.713Z,88.22
2019-05-28T10:13:54.705Z,88.02
2019-05-28T10:14:47.076Z,86.4
2019-05-28T10:15:39.451Z,85.82
2019-05-28T10:16:05.653Z,86.21
2019-05-28T10:16:57.945Z,86.78
2019-05-28T10:18:16.426Z,86.54
2019-05-28T10:19:08.746Z,86.25
2019-05-28T10:19:34.917Z,85.58
2019-05-28T10:20:27.229Z,86.25
2019-05-28T10:21:47.435Z,87.7
2019-05-28T10:23:05.912Z,89.8
2019-05-28T10:23:58.190Z,90.42
2019-05-28T10:24:24.431Z,90.9
2019-05-28T10:25:16.740Z,90.14
2019-05-28T10:26:09.094Z,89.65
2019-05-28T10:26:35.259Z,89.08
2019-05-28T10:27:27.580Z,89.47
2019-05-28T10:28:00.631Z,89.47
2019-05-28T10:28:50.209Z,89.12
2019-05-28T10:29:39.374Z,89.51
2019-05-28T10:30:05.521Z,88.65
2019-05-28T10:30:57.816Z,88.84
2019-05-28T10:32:16.246Z,87.88
2019-05-28T10:33:08.606Z,87.4
2019-05-28T10:33:34.785Z,87.68
2019-05-28T10:34:27.231Z,86.92
2019-05-28T10:35:46.713Z,86.48
2019-05-28T10:37:06.394Z,84.66
2019-05-28T10:37:58.817Z,83.45
2019-05-28T10:38:24.967Z,82.78
2019-05-28T10:39:17.305Z,82.59
2019-05-28T10:40:35.791Z,81.43
2019-05-28T10:41:28.122Z,79.99
2019-05-28T10:41:54.325Z,79.42
2019-05-28T10:42:46.686Z,79.75
2019-05-28T10:43:39.055Z,78.78
2019-05-28T10:44:05.539Z,78.21
2019-05-28T10:44:57.871Z,79.27
2019-05-28T10:46:16.571Z,79.11